createdAt,value
2022-10-23T00:02:29.580Z,69532.09
2022-10-23T00:05:20.345Z,69532.09
2022-10-23T00:08:09.225Z,69532.09
2022-10-23T00:10:57.833Z,69532.09
2022-10-23T00:13:47.647Z,69532.09
2022-10-23T00:16:38.419Z,69532.09
2022-10-23T00:19:27.374Z,69532.09
2022-10-23T00:22:15.647Z,69532.09
2022-10-23T00:25:07.331Z,69532.09
2022-10-23T00:27:55.109Z,69532.09
2022-10-23T00:30:45.301Z,69532.09
2022-10-23T00:33:35.280Z,69532.09
2022-10-23T00:36:23.632Z,69532.09
2022-10-23T00:39:14.216Z,69532.09
2022-10-23T00:42:02.327Z,69532.09
2022-10-23T00:44:50.002Z,69532.09
2022-10-23T00:47:39.451Z,69532.09
2022-10-23T00:50:28.963Z,69532.09
2022-10-23T00:53:19.410Z,69532.09
2022-10-23T00:56:08.415Z,69532.09
2022-10-23T00:58:58.453Z,69532.09
2022-10-23T01:01:48.772Z,69532.09
2022-10-23T01:04:39.644Z,69532.09
2022-10-23T01:07:36.628Z,69532.09
2022-10-23T01:10:40.397Z,69532.09
2022-10-23T01:13:47.933Z,69532.09
2022-10-23T01:16:48.857Z,69532.09
2022-10-23T01:44:05.630Z,69532.09
2022-10-23T01:58:39.907Z,69532.09
2022-10-23T02:10:50.138Z,69532.09
2022-10-23T02:21:18.911Z,69532.09
2022-10-23T02:44:28.313Z,69532.09
2022-10-23T03:23:01.940Z,69532.09
2022-10-23T03:26:52.300Z,69532.09
2022-10-23T03:33:50.821Z,69532.09
2022-10-23T03:37:16.399Z,69532.09
2022-10-23T03:47:02.531Z,69532.09
2022-10-23T03:53:16.651Z,69532.09
2022-10-23T04:06:59.801Z,69532.09
2022-10-23T04:09:59.131Z,69532.09
2022-10-23T04:13:01.751Z,69532.09
2022-10-23T04:20:00.553Z,69532.09
2022-10-23T04:27:06.171Z,69532.09
2022-10-23T04:30:16.566Z,69532.09
2022-10-23T04:33:04.159Z,69532.09
2022-10-23T05:12:55.488Z,69532.09
2022-10-23T05:15:46.497Z,69532.09
2022-10-23T05:26:19.564Z,69532.09
2022-10-23T05:29:20.856Z,69532.09
2022-10-23T05:36:11.079Z,69532.09
2022-10-23T05:39:10.511Z,69532.09
2022-10-23T05:49:29.408Z,69532.09
2022-10-23T05:52:22.076Z,69532.09
2022-10-23T05:55:09.502Z,69532.09
2022-10-23T05:57:56.611Z,69532.09
2022-10-23T06:00:43.604Z,69532.09
2022-10-23T06:03:30.589Z,69532.09
2022-10-23T06:06:17.521Z,69532.09
2022-10-23T06:09:05.110Z,69532.09
2022-10-23T06:11:52.087Z,69532.09
2022-10-23T06:14:39.053Z,69532.09
2022-10-23T06:17:27.202Z,69532.09
2022-10-23T06:20:14.221Z,69532.09
2022-10-23T06:23:01.219Z,69532.09
2022-10-23T06:25:53.626Z,69532.09
2022-10-23T06:28:41.543Z,69532.09
2022-10-23T06:31:28.693Z,69532.09
2022-10-23T06:34:16.081Z,69532.09
2022-10-23T06:37:03.054Z,69532.09
2022-10-23T06:39:50.098Z,69532.09
2022-10-23T06:42:37.021Z,69532.09
2022-10-23T06:45:23.960Z,69532.09
2022-10-23T06:48:11.053Z,69532.09
2022-10-23T06:50:58.819Z,69532.09
2022-10-23T06:53:46.158Z,69532.09
2022-10-23T06:56:33.101Z,69532.09
2022-10-23T06:59:20.154Z,69532.09
2022-10-23T07:02:07.134Z,69532.09
2022-10-23T07:04:54.091Z,69532.09
2022-10-23T07:07:41.194Z,69532.09
2022-10-23T07:10:28.236Z,69532.09
2022-10-23T07:13:15.237Z,69532.09
2022-10-23T07:16:17.962Z,69532.09
2022-10-23T07:19:06.921Z,69532.09
2022-10-23T07:21:53.876Z,69532.09
2022-10-23T07:24:40.958Z,69532.09
2022-10-23T07:27:27.882Z,69532.09
2022-10-23T07:30:15.105Z,69532.09
2022-10-23T07:33:02.097Z,69532.09
2022-10-23T07:35:50.074Z,69532.09
2022-10-23T07:38:37.053Z,69532.09
2022-10-23T07:41:24.075Z,69532.09
2022-10-23T07:44:11.050Z,69532.09
2022-10-23T07:46:58.001Z,69532.09
2022-10-23T07:49:44.909Z,69532.09
2022-10-23T07:52:35.026Z,69532.09
2022-10-23T07:55:22.997Z,69532.09
2022-10-23T07:58:10.022Z,69532.09
2022-10-23T08:01:01.722Z,69532.09
2022-10-23T08:03:48.749Z,69532.09
2022-10-23T08:06:36.255Z,69532.09
2022-10-23T08:09:23.145Z,69532.09
2022-10-23T08:12:10.471Z,69532.09
2022-10-23T08:14:57.385Z,69532.09
2022-10-23T08:17:44.507Z,69532.09
2022-10-23T08:20:31.807Z,69532.09
2022-10-23T08:23:19.806Z,69532.09
2022-10-23T08:26:07.073Z,69532.09
2022-10-23T08:28:54.042Z,69532.09
2022-10-23T08:31:41.015Z,69532.09
2022-10-23T08:34:28.532Z,69532.09
2022-10-23T08:37:15.497Z,69532.09
2022-10-23T08:40:02.506Z,69532.09
2022-10-23T08:43:06.537Z,69532.09
2022-10-23T08:46:05.151Z,69532.09
2022-10-23T08:49:18.032Z,69532.09
2022-10-23T08:52:41.881Z,69532.09
2022-10-23T08:55:57.106Z,69532.09
2022-10-23T09:01:47.545Z,69532.09
2022-10-23T09:04:35.145Z,69532.09
2022-10-23T09:07:45.498Z,69532.09
2022-10-23T09:10:58.835Z,69532.09
2022-10-23T09:14:18.195Z,69532.09
2022-10-23T09:20:12.517Z,69532.09
2022-10-23T09:23:04.581Z,69532.09
2022-10-23T09:25:55.602Z,69532.09
2022-10-23T09:29:07.698Z,101171.81
2022-10-23T09:31:57.105Z,101157.44
2022-10-23T09:34:53.498Z,101155.22
2022-10-23T09:37:47.826Z,101153.63
2022-10-23T09:40:42.835Z,101156.16
2022-10-23T09:43:30.321Z,101133.28
2022-10-23T09:46:17.307Z,101126.53
2022-10-23T09:49:05.802Z,101116.81
2022-10-23T09:52:10.043Z,101108.44
2022-10-23T09:55:00.319Z,101087.13
2022-10-23T09:57:47.856Z,101088.06
2022-10-23T10:00:35.044Z,101069.53
2022-10-23T10:03:23.520Z,101057.88
2022-10-23T10:06:27.775Z,101043.81
2022-10-23T10:09:16.952Z,101034.19
2022-10-23T10:12:30.748Z,101014.03
2022-10-23T10:15:42.725Z,101000.38
2022-10-23T10:19:01.909Z,100988.31
2022-10-23T10:22:11.889Z,100966.19
2022-10-23T10:25:23.611Z,100963.72
2022-10-23T10:28:28.678Z,100953.63
2022-10-23T10:31:50.757Z,100942.28
2022-10-23T10:35:01.625Z,100938.50
2022-10-23T10:38:00.811Z,100908.22
2022-10-23T10:41:26.206Z,100892.06
2022-10-23T10:44:20.529Z,100887.09
2022-10-23T10:47:27.432Z,100877.84
2022-10-23T10:50:40.018Z,100883.13
2022-10-23T10:53:45.158Z,100875.84
2022-10-23T10:56:35.515Z,100873.66
2022-10-23T10:59:32.097Z,100865.19
2022-10-23T11:03:08.442Z,100861.38
2022-10-23T11:08:57.355Z,100844.66
2022-10-23T11:11:44.949Z,100843.31
2022-10-23T11:14:34.571Z,100833.72
2022-10-23T11:17:33.010Z,100832.91
2022-10-23T11:20:25.979Z,100836.19
2022-10-23T11:23:34.373Z,100829.66
2022-10-23T11:27:02.181Z,100823.94
2022-10-23T11:30:17.124Z,100805.75
2022-10-23T11:33:06.914Z,100807.31
2022-10-23T11:36:05.182Z,100789.78
2022-10-23T11:38:54.032Z,100824.50
2022-10-23T11:41:49.085Z,100823.13
2022-10-23T11:44:47.885Z,100820.56
2022-10-23T11:47:40.595Z,100822.53
2022-10-23T11:50:31.625Z,100822.06
2022-10-23T11:53:26.267Z,100833.78
2022-10-23T11:56:13.283Z,100844.75
2022-10-23T12:03:41.552Z,100828.16
2022-10-23T12:11:00.698Z,100805.13
2022-10-23T12:18:57.924Z,100822.03
2022-10-23T12:22:14.547Z,100809.47
2022-10-23T12:25:13.499Z,100816.88
2022-10-23T12:28:21.372Z,100822.88
2022-10-23T12:55:15.214Z,100750.75
2022-10-23T13:05:15.435Z,100722.13
2022-10-23T13:08:26.363Z,100723.56
2022-10-23T13:18:19.345Z,100707.84
2022-10-23T13:21:17.266Z,100705.06
2022-10-23T13:24:04.723Z,100692.19
2022-10-23T13:26:52.060Z,100699.53
2022-10-23T13:29:42.516Z,100690.00
2022-10-23T13:32:30.626Z,100700.13
2022-10-23T13:35:23.403Z,100702.25
2022-10-23T13:38:14.377Z,100688.13
2022-10-23T13:41:14.086Z,100688.44
2022-10-23T13:44:01.249Z,100674.81
2022-10-23T13:46:49.923Z,100690.47
2022-10-23T13:52:58.227Z,100667.69
2022-10-23T13:55:51.549Z,100660.38
2022-10-23T14:16:32.034Z,100634.38
2022-10-23T14:19:22.264Z,100631.97
2022-10-23T14:25:11.967Z,100612.00
2022-10-23T14:27:59.219Z,100600.13
2022-10-23T14:31:06.116Z,100578.44
2022-10-23T14:40:04.723Z,100577.72
2022-10-23T14:42:58.634Z,100575.19
2022-10-23T14:51:57.256Z,100584.84
2022-10-23T14:54:45.465Z,100568.75
2022-10-23T15:01:23.786Z,100535.81
2022-10-23T15:04:45.300Z,100540.22
2022-10-23T15:39:38.221Z,100485.97
2022-10-23T15:42:25.321Z,100502.97
2022-10-23T15:45:23.901Z,100504.56
2022-10-23T15:51:53.533Z,100503.78
2022-10-23T15:55:29.243Z,100507.75
2022-10-23T15:58:23.070Z,100501.34
2022-10-23T16:01:13.834Z,100488.06
2022-10-23T16:04:01.399Z,100484.38
2022-10-23T16:06:49.954Z,100447.91
2022-10-23T16:09:38.913Z,100401.22
2022-10-23T16:12:27.460Z,100386.13
2022-10-23T16:15:15.210Z,100414.19
2022-10-23T16:18:03.706Z,100430.81
2022-10-23T16:20:57.474Z,100431.28
2022-10-23T16:23:45.102Z,100430.13
2022-10-23T16:26:34.471Z,100410.75
2022-10-23T16:29:27.600Z,100405.13
2022-10-23T16:32:25.506Z,100404.81
2022-10-23T16:38:13.729Z,100410.59
2022-10-23T16:41:03.630Z,100405.75
2022-10-23T16:43:54.007Z,100408.22
2022-10-23T16:46:40.986Z,100409.91
2022-10-23T16:49:29.868Z,100412.31
2022-10-23T16:52:16.852Z,100408.75
2022-10-23T16:55:04.099Z,100410.38
2022-10-23T16:57:51.634Z,100411.19
2022-10-23T17:00:39.168Z,100400.81
2022-10-23T17:03:30.981Z,100396.41
2022-10-23T17:06:26.140Z,100395.63
2022-10-23T17:09:13.742Z,100400.44
2022-10-23T17:15:04.338Z,100421.72
2022-10-23T17:17:57.686Z,100456.66
2022-10-23T17:20:44.922Z,100493.13
2022-10-23T17:23:47.984Z,100481.38
2022-10-23T17:26:41.038Z,100496.88
2022-10-23T17:29:32.464Z,100503.19
2022-10-23T17:38:48.931Z,100494.19
2022-10-23T17:42:26.466Z,100506.31
2022-10-23T17:45:17.274Z,100513.63
2022-10-23T17:48:04.441Z,100519.00
2022-10-23T17:51:04.793Z,100527.50
2022-10-23T17:53:54.258Z,100516.78
2022-10-23T17:56:41.506Z,100520.41
2022-10-23T17:59:28.494Z,100517.22
2022-10-23T18:02:15.665Z,100521.69
2022-10-23T18:05:03.300Z,100507.72
2022-10-23T18:07:53.282Z,100518.56
2022-10-23T18:10:40.746Z,100526.66
2022-10-23T18:13:28.528Z,100522.63
2022-10-23T18:16:15.674Z,100527.06
2022-10-23T18:19:03.344Z,100535.91
2022-10-23T18:21:50.288Z,100539.13
2022-10-23T18:24:38.289Z,100542.72
2022-10-23T18:27:25.321Z,100539.13
2022-10-23T18:30:12.745Z,100546.34
2022-10-23T18:32:59.718Z,100549.16
2022-10-23T18:35:47.657Z,100553.56
2022-10-23T18:38:35.814Z,100547.13
2022-10-23T18:41:23.790Z,100537.47
2022-10-23T18:44:15.760Z,100559.56
2022-10-23T18:47:06.148Z,100560.75
2022-10-23T18:49:53.141Z,100571.19
2022-10-23T18:52:40.285Z,100581.63
2022-10-23T18:55:27.260Z,100573.97
2022-10-23T18:58:14.222Z,100582.81
2022-10-23T19:01:01.290Z,100592.84
2022-10-23T19:03:49.006Z,100596.03
2022-10-23T19:06:37.920Z,100598.47
2022-10-23T19:09:26.202Z,100606.13
2022-10-23T19:12:15.724Z,100607.28
2022-10-23T19:15:07.448Z,100595.22
2022-10-23T19:17:55.715Z,100583.16
2022-10-23T19:20:43.451Z,100584.00
2022-10-23T19:23:30.623Z,100588.41
2022-10-23T19:26:18.076Z,100593.63
2022-10-23T19:29:08.836Z,100575.16
2022-10-23T19:31:57.316Z,100566.72
2022-10-23T19:34:45.887Z,100547.47
2022-10-23T19:37:33.099Z,100543.47
2022-10-23T19:40:20.761Z,100513.31
2022-10-23T19:43:09.642Z,100457.56
2022-10-23T19:46:00.055Z,100376.91
2022-10-23T19:48:47.885Z,100416.28
2022-10-23T19:51:37.965Z,100423.53
2022-10-23T19:54:25.125Z,100440.41
2022-10-23T19:57:12.255Z,100423.56
2022-10-23T20:00:00.294Z,100391.47
2022-10-23T20:02:49.100Z,100388.28
2022-10-23T20:05:43.490Z,100417.59
2022-10-23T20:08:34.245Z,100444.47
2022-10-23T20:11:26.030Z,100487.81
2022-10-23T20:14:13.482Z,100489.81
2022-10-23T20:17:01.646Z,100495.81
2022-10-23T20:19:49.369Z,100505.84
2022-10-23T20:22:40.538Z,100515.06
2022-10-23T20:25:29.990Z,100518.31
2022-10-23T20:28:16.986Z,100525.53
2022-10-23T20:31:09.268Z,100518.28
2022-10-23T20:33:56.621Z,100525.94
2022-10-23T20:36:47.018Z,100532.72
2022-10-23T20:39:36.737Z,100523.91
2022-10-23T20:42:23.808Z,100534.34
2022-10-23T20:45:11.118Z,100527.13
2022-10-23T20:47:59.013Z,100524.72
2022-10-23T20:50:46.390Z,100520.69
2022-10-23T20:53:35.647Z,100531.13
2022-10-23T20:56:31.364Z,100527.91
2022-10-23T20:59:21.583Z,100531.53
2022-10-23T21:02:10.340Z,100541.56
2022-10-23T21:04:59.206Z,100551.16
2022-10-23T21:07:46.635Z,100548.41
2022-10-23T21:10:34.767Z,100536.34
2022-10-23T21:13:22.837Z,100547.16
2022-10-23T21:16:20.887Z,100556.38
2022-10-23T21:19:16.938Z,100543.94
2022-10-23T21:22:05.472Z,100549.56
2022-10-23T21:24:54.124Z,100541.53
2022-10-23T21:27:42.041Z,100549.56
2022-10-23T21:30:30.639Z,100542.31
2022-10-23T21:33:18.987Z,100545.91
2022-10-23T21:36:15.891Z,100538.28
2022-10-23T21:39:03.884Z,100547.50
2022-10-23T21:41:51.112Z,100543.41
2022-10-23T21:44:38.212Z,100542.91
2022-10-23T21:47:25.651Z,100554.13
2022-10-23T21:50:12.822Z,100560.66
2022-10-23T21:52:59.977Z,100561.44
2022-10-23T21:55:47.145Z,100560.66
2022-10-23T21:58:34.429Z,100571.47
2022-10-23T22:01:23.549Z,100579.94
2022-10-23T22:04:11.882Z,100587.97
2022-10-23T22:06:59.504Z,100596.78
2022-10-23T22:09:46.677Z,100600.81
2022-10-23T22:12:33.815Z,100612.06
2022-10-23T22:15:21.014Z,100618.47
2022-10-23T22:18:08.134Z,100631.38
2022-10-23T22:21:11.802Z,100639.44
2022-10-23T22:24:01.098Z,100633.03
2022-10-23T22:26:51.840Z,100624.59
2022-10-23T22:29:39.081Z,100633.81
2022-10-23T22:32:26.295Z,100627.41
2022-10-23T22:35:13.470Z,100636.22
2022-10-23T22:38:00.656Z,100623.38
2022-10-23T22:43:35.372Z,100612.97
2022-10-23T22:46:22.922Z,100604.13
2022-10-23T22:49:10.752Z,100603.34
2022-10-23T22:51:57.983Z,100591.34
2022-10-23T22:54:45.123Z,100602.16
2022-10-23T22:57:32.229Z,100617.03
2022-10-23T23:00:19.536Z,100598.56
2022-10-23T23:03:07.739Z,100585.72
2022-10-23T23:05:55.019Z,100574.06
2022-10-23T23:08:42.973Z,100571.66
2022-10-23T23:11:40.818Z,100560.81
2022-10-23T23:14:38.917Z,100527.88
2022-10-23T23:17:26.155Z,100513.44
2022-10-23T23:20:13.779Z,100520.25
2022-10-23T23:23:00.976Z,100539.13
2022-10-23T23:25:50.154Z,100541.09
2022-10-23T23:28:37.906Z,100538.31
2022-10-23T23:31:26.639Z,100534.69
2022-10-23T23:34:13.828Z,100533.50
2022-10-23T23:37:01.007Z,100519.06
2022-10-23T23:39:48.276Z,100517.88
2022-10-23T23:42:35.462Z,100500.59
2022-10-23T23:45:22.807Z,100504.66
2022-10-23T23:48:10.074Z,100507.84
2022-10-23T23:50:57.284Z,100506.25
2022-10-23T23:53:44.546Z,100508.66
2022-10-23T23:56:32.152Z,100515.09
2022-10-23T23:59:19.341Z,100505.44
